createdAt,value
2022-08-10T00:01:54.656Z,3.80
2022-08-10T00:04:24.797Z,4.10
2022-08-10T00:06:55.118Z,4.00
2022-08-10T00:09:24.928Z,4.50
2022-08-10T00:11:53.501Z,4.30
2022-08-10T00:14:22.012Z,4.80
2022-08-10T00:16:50.716Z,4.50
2022-08-10T00:19:19.269Z,3.90
2022-08-10T00:21:48.260Z,4.20
2022-08-10T00:24:16.997Z,4.50
2022-08-10T00:27:52.856Z,4.20
2022-08-10T00:29:34.275Z,4.30
2022-08-10T00:32:03.365Z,4.20
2022-08-10T00:34:33.484Z,4.30
2022-08-10T00:37:02.216Z,4.10
2022-08-10T00:39:34.503Z,3.60
2022-08-10T00:42:10.772Z,3.80
2022-08-10T00:44:46.476Z,4.10
2022-08-10T00:47:21.319Z,5.60
2022-08-10T00:50:06.340Z,5.50
2022-08-10T00:52:36.814Z,4.20
2022-08-10T00:55:06.338Z,4.60
2022-08-10T00:57:35.685Z,5.00
2022-08-10T01:00:07.370Z,5.00
2022-08-10T01:02:36.381Z,4.90
2022-08-10T01:05:10.690Z,4.40
2022-08-10T01:08:07.381Z,5.40
2022-08-10T01:10:45.669Z,4.70
2022-08-10T01:13:38.058Z,4.40
2022-08-10T01:16:18.711Z,4.70
2022-08-10T01:19:11.732Z,4.80
2022-08-10T01:22:29.962Z,4.30
2022-08-10T01:25:28.956Z,4.10
2022-08-10T01:28:19.518Z,4.40
2022-08-10T01:30:53.949Z,4.40
2022-08-10T01:33:57.879Z,5.00
2022-08-10T01:36:35.451Z,4.60
2022-08-10T01:39:06.611Z,4.50
2022-08-10T01:41:46.575Z,3.60
2022-08-10T01:44:25.512Z,4.20
2022-08-10T01:47:22.637Z,4.80
2022-08-10T01:50:08.298Z,4.80
2022-08-10T01:52:43.219Z,4.90
2022-08-10T01:55:14.065Z,4.80
2022-08-10T01:57:46.049Z,4.40
2022-08-10T02:00:15.103Z,5.50
2022-08-10T02:02:45.321Z,4.40
2022-08-10T02:05:16.539Z,4.70
2022-08-10T02:07:48.263Z,5.50
2022-08-10T02:10:19.438Z,5.00
2022-08-10T02:12:50.203Z,5.90
2022-08-10T02:15:20.957Z,4.80
2022-08-10T02:18:00.212Z,5.10
2022-08-10T02:20:41.644Z,5.20
2022-08-10T02:23:28.856Z,5.40
2022-08-10T02:26:00.822Z,5.00
2022-08-10T02:28:33.784Z,4.80
2022-08-10T02:31:11.401Z,5.60
2022-08-10T02:33:57.666Z,5.50
2022-08-10T02:36:32.987Z,5.00
2022-08-10T02:39:06.225Z,6.30
2022-08-10T02:42:17.890Z,5.90
2022-08-10T02:45:30.833Z,5.50
2022-08-10T02:48:20.160Z,5.00
2022-08-10T02:51:00.232Z,5.00
2022-08-10T02:53:56.651Z,4.90
2022-08-10T02:56:26.788Z,5.10
2022-08-10T02:59:05.822Z,4.80
2022-08-10T03:01:43.065Z,4.70
2022-08-10T03:04:56.023Z,4.70
2022-08-10T03:07:43.319Z,4.70
2022-08-10T03:10:26.938Z,5.50
2022-08-10T03:13:04.355Z,5.60
2022-08-10T03:15:36.622Z,5.10
2022-08-10T03:18:06.264Z,5.20
2022-08-10T03:20:40.971Z,5.90
2022-08-10T03:23:15.068Z,5.40
2022-08-10T03:25:53.779Z,5.10
2022-08-10T03:28:29.182Z,5.30
2022-08-10T03:31:00.678Z,5.40
2022-08-10T03:33:34.991Z,5.60
2022-08-10T03:36:43.986Z,4.90
2022-08-10T03:38:53.247Z,4.40
2022-08-10T03:41:53.666Z,5.60
2022-08-10T03:44:31.823Z,5.70
2022-08-10T03:47:02.260Z,5.70
2022-08-10T03:49:32.913Z,6.30
2022-08-10T03:52:02.067Z,5.90
2022-08-10T03:54:30.700Z,6.10
2022-08-10T03:56:59.735Z,5.70
2022-08-10T03:59:31.503Z,5.50
2022-08-10T04:02:45.530Z,6.00
2022-08-10T04:04:50.126Z,5.50
2022-08-10T04:07:18.886Z,5.90
2022-08-10T04:09:55.441Z,4.70
2022-08-10T04:12:25.188Z,5.80
2022-08-10T04:14:54.023Z,8.10
2022-08-10T04:18:03.772Z,6.70
2022-08-10T04:20:34.308Z,6.10
2022-08-10T04:23:14.062Z,5.80
2022-08-10T04:25:42.864Z,5.90
2022-08-10T04:28:12.980Z,6.80
2022-08-10T04:30:43.495Z,6.80
2022-08-10T04:33:15.587Z,6.10
2022-08-10T04:35:46.679Z,5.10
2022-08-10T04:38:17.228Z,5.70
2022-08-10T04:40:47.593Z,6.40
2022-08-10T04:43:16.352Z,5.40
2022-08-10T04:45:47.237Z,6.60
2022-08-10T04:48:43.325Z,7.60
2022-08-10T04:51:06.196Z,6.50
2022-08-10T04:54:04.411Z,6.40
2022-08-10T04:56:32.102Z,7.80
2022-08-10T04:59:01.095Z,5.60
2022-08-10T05:01:37.776Z,7.10
2022-08-10T05:04:36.984Z,6.40
2022-08-10T05:07:16.477Z,6.40
2022-08-10T05:10:04.001Z,6.90
2022-08-10T05:12:38.666Z,7.50
2022-08-10T05:15:13.688Z,7.60
2022-08-10T05:18:03.578Z,7.30
2022-08-10T05:20:31.803Z,6.70
2022-08-10T05:23:00.359Z,6.80
2022-08-10T05:25:29.036Z,7.40
2022-08-10T05:28:05.810Z,7.80
2022-08-10T05:30:35.199Z,6.40
2022-08-10T05:33:08.228Z,6.80
2022-08-10T05:35:56.520Z,7.20
2022-08-10T05:38:28.461Z,14.70
2022-08-10T05:40:57.987Z,11.20
2022-08-10T05:43:27.181Z,9.10
2022-08-10T05:46:19.999Z,6.50
2022-08-10T05:48:59.587Z,6.20
2022-08-10T05:51:32.127Z,6.70
2022-08-10T05:54:06.245Z,7.20
2022-08-10T05:56:55.788Z,5.70
2022-08-10T06:00:34.194Z,9.40
2022-08-10T06:03:03.593Z,7.40
2022-08-10T06:05:39.650Z,6.40
2022-08-10T06:08:19.389Z,6.40
2022-08-10T06:12:25.591Z,6.80
2022-08-10T06:14:15.757Z,11.30
2022-08-10T06:16:45.778Z,8.60
2022-08-10T06:19:18.425Z,6.60
2022-08-10T06:22:01.283Z,6.40
2022-08-10T06:25:12.233Z,6.20
2022-08-10T06:27:38.179Z,6.70
2022-08-10T06:30:21.848Z,6.40
2022-08-10T06:33:05.184Z,8.60
2022-08-10T06:35:34.932Z,9.10
2022-08-10T06:38:06.694Z,11.40
2022-08-10T06:40:39.680Z,6.90
2022-08-10T06:43:15.562Z,6.40
2022-08-10T06:46:07.915Z,5.70
2022-08-10T06:48:55.512Z,5.60
2022-08-10T06:51:31.043Z,6.00
2022-08-10T06:54:12.646Z,5.80
2022-08-10T06:56:56.011Z,6.50
2022-08-10T07:00:24.302Z,5.70
2022-08-10T07:03:09.935Z,6.30
2022-08-10T07:05:47.983Z,5.40
2022-08-10T07:08:23.673Z,5.60
2022-08-10T07:10:54.767Z,5.60
2022-08-10T07:14:16.507Z,4.70
2022-08-10T07:16:14.600Z,5.20
2022-08-10T07:19:21.673Z,5.10
2022-08-10T07:21:51.640Z,4.30
2022-08-10T07:24:28.587Z,4.30
2022-08-10T07:26:58.752Z,4.80
2022-08-10T07:29:53.319Z,4.50
2022-08-10T07:32:33.691Z,3.90
2022-08-10T07:35:11.149Z,4.30
2022-08-10T07:37:43.986Z,4.30
2022-08-10T07:40:16.479Z,3.90
2022-08-10T07:42:50.965Z,4.10
2022-08-10T07:45:25.983Z,4.70
2022-08-10T07:50:55.419Z,4.10
2022-08-10T07:53:28.151Z,4.00
2022-08-10T07:56:05.738Z,3.40
2022-08-10T07:58:51.787Z,4.10
2022-08-10T08:01:28.163Z,3.40
2022-08-10T08:04:05.303Z,3.70
2022-08-10T08:06:44.336Z,3.40
2022-08-10T08:09:16.505Z,3.30
2022-08-10T08:11:47.603Z,3.10
2022-08-10T08:14:17.377Z,3.00
2022-08-10T08:16:52.428Z,3.40
2022-08-10T08:19:50.212Z,3.20
2022-08-10T08:24:05.726Z,3.40
2022-08-10T08:25:37.236Z,2.70
2022-08-10T08:28:13.020Z,3.20
2022-08-10T08:30:45.690Z,2.40
2022-08-10T08:33:41.066Z,2.70
2022-08-10T08:36:09.187Z,3.50
2022-08-10T08:38:41.824Z,2.70
2022-08-10T08:41:47.577Z,2.90
2022-08-10T08:44:50.439Z,2.90
2022-08-10T08:48:03.300Z,3.30
2022-08-10T08:50:57.456Z,2.90
2022-08-10T08:54:37.585Z,3.10
2022-08-10T08:57:49.495Z,2.20
2022-08-10T09:00:39.019Z,3.10
2022-08-10T09:04:26.161Z,4.30
2022-08-10T09:08:06.326Z,2.60
2022-08-10T09:11:24.382Z,3.20
2022-08-10T09:14:25.391Z,2.50
2022-08-10T09:17:29.385Z,2.10
2022-08-10T09:20:19.531Z,2.30
2022-08-10T09:24:04.329Z,2.40
2022-08-10T09:26:45.292Z,2.50
2022-08-10T09:29:27.881Z,2.20
2022-08-10T09:36:15.282Z,2.90
2022-08-10T09:38:21.643Z,2.20
2022-08-10T09:41:13.355Z,2.10
2022-08-10T09:44:09.225Z,2.30
2022-08-10T09:49:56.314Z,2.50
2022-08-10T09:53:11.176Z,1.90
2022-08-10T09:56:17.824Z,3.50
2022-08-10T09:59:56.746Z,2.40
2022-08-10T10:02:58.578Z,2.40
2022-08-10T10:06:17.545Z,2.60
2022-08-10T10:09:10.229Z,2.90
2022-08-10T10:12:14.636Z,2.40
2022-08-10T10:15:24.209Z,2.40
2022-08-10T10:18:03.489Z,2.00
2022-08-10T10:20:58.555Z,1.80
2022-08-10T10:24:21.668Z,2.70
2022-08-10T10:27:16.042Z,1.70
2022-08-10T10:30:09.778Z,2.60
2022-08-10T10:32:57.779Z,2.90
2022-08-10T10:36:14.509Z,1.70
2022-08-10T10:38:44.616Z,2.10
2022-08-10T10:41:57.317Z,1.70
2022-08-10T10:45:08.309Z,1.80
2022-08-10T10:48:33.867Z,1.80
2022-08-10T10:51:48.366Z,2.10
2022-08-10T10:54:33.308Z,2.00
2022-08-10T10:57:13.883Z,2.40
2022-08-10T10:59:55.538Z,1.90
2022-08-10T11:02:46.725Z,2.10
2022-08-10T11:05:47.378Z,2.10
2022-08-10T11:09:08.622Z,2.20
2022-08-10T11:12:43.536Z,2.30
2022-08-10T11:16:33.713Z,1.80
2022-08-10T11:20:08.988Z,2.20
2022-08-10T11:22:59.437Z,2.00
2022-08-10T11:25:31.918Z,2.10
2022-08-10T11:28:30.340Z,2.40
2022-08-10T11:31:15.720Z,1.80
2022-08-10T11:34:11.335Z,2.40
2022-08-10T11:38:34.718Z,2.70
2022-08-10T11:42:06.465Z,2.10
2022-08-10T11:44:03.492Z,2.00
2022-08-10T11:46:34.985Z,1.70
2022-08-10T11:49:32.222Z,2.30
2022-08-10T11:52:16.010Z,2.80
2022-08-10T11:54:54.457Z,3.00
2022-08-10T11:57:54.733Z,2.20
2022-08-10T12:00:33.655Z,2.00
2022-08-10T12:03:12.744Z,1.70
2022-08-10T12:06:45.445Z,2.30
2022-08-10T12:10:03.841Z,1.40
2022-08-10T12:12:03.192Z,1.70
2022-08-10T12:14:42.995Z,2.30
2022-08-10T12:17:40.518Z,2.00
2022-08-10T12:20:31.061Z,1.60
2022-08-10T12:23:22.593Z,2.10
2022-08-10T12:26:19.230Z,1.90
2022-08-10T12:29:22.438Z,2.20
2022-08-10T12:33:06.575Z,1.80
2022-08-10T12:36:14.840Z,2.00
2022-08-10T12:39:07.373Z,1.70
2022-08-10T12:42:38.697Z,1.90
2022-08-10T12:46:05.861Z,1.90
2022-08-10T12:49:10.642Z,2.40
2022-08-10T12:52:11.443Z,2.00
2022-08-10T12:54:59.723Z,1.90
2022-08-10T12:57:29.881Z,1.70
2022-08-10T13:00:03.032Z,1.50
2022-08-10T13:02:48.599Z,1.80
2022-08-10T13:06:08.673Z,2.00
2022-08-10T13:08:57.193Z,1.70
2022-08-10T13:12:38.989Z,1.70
2022-08-10T13:14:58.188Z,2.80
2022-08-10T13:17:39.418Z,3.10
2022-08-10T13:20:38.129Z,2.50
2022-08-10T13:23:20.781Z,1.90
2022-08-10T13:26:01.731Z,2.20
2022-08-10T13:28:47.305Z,1.80
2022-08-10T13:32:03.634Z,1.60
2022-08-10T13:34:42.809Z,1.80
2022-08-10T13:37:19.360Z,2.00
2022-08-10T13:42:51.760Z,2.00
2022-08-10T13:45:57.365Z,1.70
2022-08-10T13:51:55.087Z,1.80
2022-08-10T13:57:14.569Z,1.90
2022-08-10T14:00:35.010Z,2.00
2022-08-10T14:02:55.495Z,1.90
2022-08-10T14:05:50.954Z,2.00
2022-08-10T14:08:51.850Z,3.20
2022-08-10T14:11:23.540Z,2.30
2022-08-10T14:14:07.665Z,1.90
2022-08-10T14:16:42.619Z,1.70
2022-08-10T14:19:37.831Z,2.50
2022-08-10T14:22:19.733Z,2.00
2022-08-10T14:25:13.831Z,1.80
2022-08-10T14:28:06.926Z,1.80
2022-08-10T14:30:46.466Z,1.80
2022-08-10T14:33:27.349Z,1.70
2022-08-10T14:38:39.264Z,1.50
2022-08-10T14:42:02.764Z,1.70
2022-08-10T14:44:13.846Z,1.50
2022-08-10T14:46:53.581Z,2.20
2022-08-10T14:49:27.219Z,2.10
2022-08-10T14:52:03.439Z,1.60
2022-08-10T14:54:35.126Z,1.70
2022-08-10T14:57:17.069Z,1.80
2022-08-10T15:00:22.819Z,1.50
2022-08-10T15:02:53.172Z,1.80
2022-08-10T15:05:41.678Z,1.70
2022-08-10T15:08:12.213Z,1.50
2022-08-10T15:10:42.376Z,2.00
2022-08-10T15:13:33.770Z,1.50
2022-08-10T15:16:13.956Z,1.80
2022-08-10T15:18:58.496Z,1.80
2022-08-10T15:21:42.804Z,1.60
2022-08-10T15:24:37.003Z,2.00
2022-08-10T15:27:09.025Z,5.70
2022-08-10T15:29:57.021Z,2.00
2022-08-10T15:32:57.183Z,1.60
2022-08-10T15:35:48.367Z,1.90
2022-08-10T15:38:34.945Z,2.30
2022-08-10T15:41:11.139Z,5.50
2022-08-10T15:43:44.412Z,2.10
2022-08-10T15:46:46.419Z,1.90
2022-08-10T15:49:51.935Z,2.00
2022-08-10T15:53:02.087Z,1.80
2022-08-10T15:55:53.786Z,2.20
2022-08-10T15:58:37.614Z,2.10
2022-08-10T16:02:12.703Z,1.90
2022-08-10T16:04:40.959Z,2.00
2022-08-10T16:07:22.762Z,3.10
2022-08-10T16:10:26.048Z,10.40
2022-08-10T16:13:50.292Z,11.90
2022-08-10T16:16:24.913Z,2.10
2022-08-10T16:19:22.593Z,2.30
2022-08-10T16:22:02.063Z,3.10
2022-08-10T16:24:37.185Z,4.70
2022-08-10T16:27:08.633Z,2.90
2022-08-10T16:29:56.024Z,3.10
2022-08-10T16:32:28.170Z,2.40
2022-08-10T16:35:22.010Z,2.40
2022-08-10T16:37:57.908Z,2.70
2022-08-10T16:40:30.101Z,2.30
2022-08-10T16:43:03.528Z,2.60
2022-08-10T16:45:40.231Z,2.90
2022-08-10T16:48:10.089Z,3.10
2022-08-10T16:50:45.471Z,2.70
2022-08-10T16:53:21.342Z,3.10
2022-08-10T16:56:05.306Z,3.30
2022-08-10T16:58:41.117Z,3.00
2022-08-10T17:01:18.951Z,2.80
2022-08-10T17:04:06.814Z,2.80
2022-08-10T17:07:01.197Z,2.40
2022-08-10T17:09:34.981Z,2.70
2022-08-10T17:12:11.702Z,2.50
2022-08-10T17:14:43.483Z,2.60
2022-08-10T17:17:22.774Z,2.50
2022-08-10T17:19:56.583Z,2.30
2022-08-10T17:22:46.416Z,2.60
2022-08-10T17:25:21.341Z,2.00
2022-08-10T17:28:04.797Z,2.50
2022-08-10T17:30:58.185Z,2.30
2022-08-10T17:33:32.471Z,2.00
2022-08-10T17:36:07.625Z,1.90
2022-08-10T17:38:56.029Z,2.00
2022-08-10T17:41:30.762Z,1.90
2022-08-10T17:44:03.440Z,2.00
2022-08-10T17:46:41.086Z,2.10
2022-08-10T17:49:13.725Z,2.00
2022-08-10T17:54:48.487Z,5.40
2022-08-10T17:57:24.374Z,2.60
2022-08-10T17:59:55.387Z,2.10
2022-08-10T18:02:47.458Z,1.80
2022-08-10T18:05:16.827Z,1.60
2022-08-10T18:07:57.964Z,1.80
2022-08-10T18:10:30.591Z,2.20
2022-08-10T18:13:01.671Z,1.60
2022-08-10T18:15:38.152Z,1.90
2022-08-10T18:18:16.836Z,1.90
2022-08-10T18:20:46.529Z,1.80
2022-08-10T18:23:15.449Z,2.10
2022-08-10T18:25:50.748Z,2.10
2022-08-10T18:28:23.494Z,2.60
2022-08-10T18:30:55.591Z,2.60
2022-08-10T18:33:31.200Z,2.10
2022-08-10T18:36:07.726Z,2.60
2022-08-10T18:38:39.692Z,3.60
2022-08-10T18:41:39.407Z,4.30
2022-08-10T18:45:05.192Z,3.40
2022-08-10T18:48:04.534Z,2.50
2022-08-10T18:50:40.880Z,2.20
2022-08-10T18:53:26.598Z,2.30
2022-08-10T18:56:10.279Z,2.40
2022-08-10T18:59:02.520Z,2.50
2022-08-10T19:02:36.564Z,1.70
2022-08-10T19:06:07.325Z,2.50
2022-08-10T19:09:09.727Z,2.60
2022-08-10T19:12:30.169Z,2.90
2022-08-10T19:15:06.546Z,2.80
2022-08-10T19:18:03.202Z,3.30
2022-08-10T19:21:09.753Z,4.30
2022-08-10T19:23:51.791Z,3.40
2022-08-10T19:26:44.737Z,3.60
2022-08-10T19:30:09.187Z,2.80
2022-08-10T19:33:24.866Z,4.10
2022-08-10T19:36:13.778Z,5.50
2022-08-10T19:39:32.079Z,3.90
2022-08-10T19:42:31.145Z,3.40
2022-08-10T19:45:55.962Z,3.00
2022-08-10T19:49:17.186Z,2.30
2022-08-10T19:52:11.220Z,2.80
2022-08-10T19:55:23.339Z,2.30
2022-08-10T19:58:46.175Z,2.40
2022-08-10T20:01:56.553Z,3.00
2022-08-10T20:04:57.047Z,6.20
2022-08-10T20:07:51.324Z,5.50
2022-08-10T20:10:41.121Z,4.40
2022-08-10T20:13:25.959Z,2.70
2022-08-10T20:16:07.168Z,4.70
2022-08-10T20:18:51.763Z,3.90
2022-08-10T20:21:47.561Z,3.00
2022-08-10T20:27:58.200Z,3.40
2022-08-10T20:30:20.452Z,2.30
2022-08-10T20:33:41.719Z,2.80
2022-08-10T20:37:00.456Z,2.80
2022-08-10T20:39:56.839Z,3.10
2022-08-10T20:42:47.637Z,3.00
2022-08-10T20:46:05.154Z,3.40
2022-08-10T20:48:38.181Z,2.80
2022-08-10T20:51:14.097Z,3.50
2022-08-10T20:53:51.987Z,2.90
2022-08-10T20:57:54.891Z,3.70
2022-08-10T21:00:10.886Z,3.90
2022-08-10T21:03:15.761Z,3.80
2022-08-10T21:06:41.419Z,4.20
2022-08-10T21:09:50.721Z,3.80
2022-08-10T21:12:46.808Z,3.40
2022-08-10T21:15:57.468Z,3.40
2022-08-10T21:19:05.496Z,4.00
2022-08-10T21:22:04.462Z,3.70
2022-08-10T21:25:03.014Z,4.00
2022-08-10T21:27:56.113Z,3.30
2022-08-10T21:31:22.064Z,3.30
2022-08-10T21:34:17.162Z,3.50
2022-08-10T21:37:56.800Z,4.10
2022-08-10T21:41:18.257Z,4.90
2022-08-10T21:44:35.398Z,4.10
2022-08-10T21:48:17.936Z,4.00
2022-08-10T21:51:16.675Z,3.70
2022-08-10T21:55:00.892Z,3.50
2022-08-10T21:58:28.548Z,3.80
2022-08-10T22:01:39.596Z,3.80
2022-08-10T22:04:27.397Z,4.10
2022-08-10T22:07:20.139Z,4.40
2022-08-10T22:10:11.120Z,4.00
2022-08-10T22:13:08.554Z,4.50
2022-08-10T22:16:11.013Z,3.90
2022-08-10T22:19:04.782Z,6.80
2022-08-10T22:22:20.090Z,8.10
2022-08-10T22:26:08.465Z,5.60
2022-08-10T22:29:12.462Z,5.30
2022-08-10T22:32:08.445Z,4.90
2022-08-10T22:35:23.103Z,4.70
2022-08-10T22:38:47.922Z,4.40
2022-08-10T22:42:11.115Z,4.30
2022-08-10T22:45:04.759Z,3.80
2022-08-10T22:47:52.199Z,4.50
2022-08-10T22:50:28.321Z,4.60
2022-08-10T22:53:08.842Z,4.80
2022-08-10T22:56:05.785Z,4.60
2022-08-10T22:58:40.122Z,4.60
2022-08-10T23:01:40.770Z,5.80
2022-08-10T23:04:27.128Z,4.80
2022-08-10T23:07:23.596Z,4.80
2022-08-10T23:10:03.070Z,4.50
2022-08-10T23:12:49.976Z,6.20
2022-08-10T23:15:55.326Z,6.00
2022-08-10T23:18:58.735Z,5.70
2022-08-10T23:22:02.878Z,4.80
2022-08-10T23:24:58.692Z,4.70
2022-08-10T23:27:38.359Z,4.40
2022-08-10T23:30:17.109Z,5.80
2022-08-10T23:32:52.081Z,5.00
2022-08-10T23:36:08.769Z,5.00
2022-08-10T23:48:25.143Z,4.90
2022-08-10T23:51:01.331Z,5.10
2022-08-10T23:53:37.015Z,4.70
2022-08-10T23:56:27.021Z,4.70
2022-08-10T23:58:58.560Z,5.30
